<?xml version="1.0" encoding="UTF-8" standalone="no" ?>
<gpx xmlns="http://www.topografix.com/GPX/1/1" xmlns:xsi="http://www.w3.org/2001/XMLSchema-instance" xsi:schemaLocation="http://www.topografix.com/GPX/1/1 http://www.topografix.com/GPX/1/1/gpx.xsd" version="1.1" creator="VisuGPX - https://www.visugpx.com">
  <metadata>
    <name>De Saint-Nom-la-Bretèche à Vernouillet-Verneuil via le GR1</name>
  </metadata>
  <wpt lat="48.89094" lon="2.01829">
    <ele>130.2</ele>
    <name><![CDATA[Désert du Retz]]></name>
    <type><![CDATA[culture]]></type>
  </wpt>
  <wpt lat="48.87978" lon="2.03865">
    <ele>178.6</ele>
    <name><![CDATA[Route des Princesses...]]></name>
  </wpt>
  <trk>
    <name><![CDATA[GR1 De la Porte Maillot (Paris) à Nesles-la-Vallée (Val-d'Oise) (2019)]]></name>
    <trkseg>
      <trkpt lat="48.86649" lon="2.04991">
        <ele>147.2</ele>
        <time>2017-03-12T16:59:49Z</time>
      </trkpt>
      <trkpt lat="48.86636" lon="2.04822">
        <ele>155.4</ele>
        <time>2017-03-12T16:59:49Z</time>
      </trkpt>
      <trkpt lat="48.86566" lon="2.04589">
        <ele>171.6</ele>
        <time>2017-03-12T17:00:09Z</time>
      </trkpt>
      <trkpt lat="48.86545" lon="2.04294">
        <ele>182.813</ele>
        <time>2017-03-12T17:00:29Z</time>
      </trkpt>
      <trkpt lat="48.86545" lon="2.04294">
        <ele>182.813</ele>
        <time>2017-03-12T17:00:49Z</time>
      </trkpt>
      <trkpt lat="48.86644" lon="2.04136">
        <ele>184.188</ele>
        <time>2017-03-12T17:01:09Z</time>
      </trkpt>
      <trkpt lat="48.86721" lon="2.04037">
        <ele>184.49</ele>
        <time>2017-03-12T17:01:29Z</time>
      </trkpt>
      <trkpt lat="48.86847" lon="2.03917">
        <ele>182.099</ele>
        <time>2017-03-12T17:01:49Z</time>
      </trkpt>
      <trkpt lat="48.86882" lon="2.03898">
        <ele>184.107</ele>
        <time>2017-03-12T17:02:09Z</time>
      </trkpt>
      <trkpt lat="48.86968" lon="2.03998">
        <ele>183.627</ele>
        <time>2017-03-12T17:02:29Z</time>
      </trkpt>
      <trkpt lat="48.86984" lon="2.04084">
        <ele>182.608</ele>
        <time>2017-03-12T17:02:49Z</time>
      </trkpt>
      <trkpt lat="48.86964" lon="2.04185">
        <ele>179.532</ele>
        <time>2017-03-12T17:03:09Z</time>
      </trkpt>
      <trkpt lat="48.86963" lon="2.04237">
        <ele>171.383</ele>
        <time>2017-03-12T17:03:29Z</time>
      </trkpt>
      <trkpt lat="48.86978" lon="2.04237">
        <ele>173.197</ele>
        <time>2017-03-12T17:03:49Z</time>
      </trkpt>
      <trkpt lat="48.87002" lon="2.04213">
        <ele>176.789</ele>
        <time>2017-03-12T17:04:09Z</time>
      </trkpt>
      <trkpt lat="48.87643" lon="2.04093">
        <ele>178.33</ele>
        <time>2017-03-12T17:04:29Z</time>
      </trkpt>
      <trkpt lat="48.87735" lon="2.04131">
        <ele>181.627</ele>
        <time>2017-03-12T17:04:49Z</time>
      </trkpt>
      <trkpt lat="48.87828" lon="2.04041">
        <ele>178.342</ele>
        <time>2017-03-12T17:05:09Z</time>
      </trkpt>
      <trkpt lat="48.87889" lon="2.03998">
        <ele>179.184</ele>
        <time>2017-03-12T17:05:29Z</time>
      </trkpt>
      <trkpt lat="48.87965" lon="2.03889">
        <ele>178.868</ele>
        <time>2017-03-12T17:05:49Z</time>
      </trkpt>
      <trkpt lat="48.8814" lon="2.0331">
        <ele>176.942</ele>
        <time>2017-03-12T17:06:09Z</time>
      </trkpt>
      <trkpt lat="48.88116" lon="2.03076">
        <ele>179.726</ele>
        <time>2017-03-12T17:06:29Z</time>
      </trkpt>
      <trkpt lat="48.88179" lon="2.02728">
        <ele>181.808</ele>
        <time>2017-03-12T17:06:49Z</time>
      </trkpt>
      <trkpt lat="48.88175" lon="2.02677">
        <ele>182.049</ele>
        <time>2017-03-12T17:07:09Z</time>
      </trkpt>
      <trkpt lat="48.88333" lon="2.0246">
        <ele>173.62</ele>
        <time>2017-03-12T17:07:29Z</time>
      </trkpt>
      <trkpt lat="48.88339" lon="2.02363">
        <ele>173.044</ele>
        <time>2017-03-12T17:07:49Z</time>
      </trkpt>
      <trkpt lat="48.88207" lon="2.02181">
        <ele>180.666</ele>
        <time>2017-03-12T17:08:09Z</time>
      </trkpt>
      <trkpt lat="48.88323" lon="2.01797">
        <ele>174.657</ele>
        <time>2017-03-12T17:08:29Z</time>
      </trkpt>
      <trkpt lat="48.88373" lon="2.01687">
        <ele>177.784</ele>
        <time>2017-03-12T17:08:49Z</time>
      </trkpt>
      <trkpt lat="48.88415" lon="2.0164">
        <ele>178.919</ele>
        <time>2017-03-12T17:09:09Z</time>
      </trkpt>
      <trkpt lat="48.88463" lon="2.01597">
        <ele>175.361</ele>
        <time>2017-03-12T17:09:29Z</time>
      </trkpt>
      <trkpt lat="48.88501" lon="2.01533">
        <ele>175.832</ele>
        <time>2017-03-12T17:09:49Z</time>
      </trkpt>
      <trkpt lat="48.88518" lon="2.01544">
        <ele>175.492</ele>
        <time>2017-03-12T17:10:09Z</time>
      </trkpt>
      <trkpt lat="48.88569" lon="2.01501">
        <ele>172.611</ele>
        <time>2019-04-01T21:37:06Z</time>
      </trkpt>
      <trkpt lat="48.88631" lon="2.01391">
        <ele>163.608</ele>
        <time>2019-04-01T21:37:26Z</time>
      </trkpt>
      <trkpt lat="48.88638" lon="2.01325">
        <ele>168.336</ele>
        <time>2017-03-12T17:13:09Z</time>
      </trkpt>
      <trkpt lat="48.8861" lon="2.01219">
        <ele>174.547</ele>
        <time>2017-03-12T17:13:29Z</time>
      </trkpt>
      <trkpt lat="48.88628" lon="2.01028">
        <ele>176.051</ele>
        <time>2017-03-12T17:13:49Z</time>
      </trkpt>
      <trkpt lat="48.88974" lon="2.0022">
        <ele>172.993</ele>
        <time>2017-03-12T17:14:09Z</time>
      </trkpt>
      <trkpt lat="48.88998" lon="2.00224">
        <ele>170.354</ele>
        <time>2017-03-12T17:14:29Z</time>
      </trkpt>
      <trkpt lat="48.89065" lon="2.00263">
        <ele>168.391</ele>
        <time>2017-03-12T17:14:49Z</time>
      </trkpt>
      <trkpt lat="48.89132" lon="2.00348">
        <ele>165.146</ele>
        <time>2017-03-12T17:15:09Z</time>
      </trkpt>
      <trkpt lat="48.89228" lon="2.00331">
        <ele>144.948</ele>
        <time>2017-03-12T17:15:29Z</time>
      </trkpt>
      <trkpt lat="48.89235" lon="2.00275">
        <ele>146.199</ele>
        <time>2017-03-12T17:15:49Z</time>
      </trkpt>
      <trkpt lat="48.89192" lon="2.00166">
        <ele>144.407</ele>
        <time>2017-03-12T17:16:09Z</time>
      </trkpt>
      <trkpt lat="48.89167" lon="2.00157">
        <ele>149.027</ele>
        <time>2017-03-12T17:16:29Z</time>
      </trkpt>
      <trkpt lat="48.8911" lon="2.00059">
        <ele>162.908</ele>
        <time>2017-03-12T17:16:49Z</time>
      </trkpt>
      <trkpt lat="48.89098" lon="1.99994">
        <ele>162.792</ele>
        <time>2017-03-12T17:17:09Z</time>
      </trkpt>
      <trkpt lat="48.89106" lon="1.99984">
        <ele>160.793</ele>
        <time>2017-03-12T17:17:29Z</time>
      </trkpt>
      <trkpt lat="48.89091" lon="1.99833">
        <ele>156.227</ele>
        <time>2017-03-12T17:17:49Z</time>
      </trkpt>
      <trkpt lat="48.89072" lon="1.99814">
        <ele>157.949</ele>
        <time>2017-03-12T17:18:09Z</time>
      </trkpt>
      <trkpt lat="48.89058" lon="1.99827">
        <ele>162.29</ele>
        <time>2017-03-12T17:18:29Z</time>
      </trkpt>
      <trkpt lat="48.89041" lon="1.99904">
        <ele>168.827</ele>
        <time>2017-03-12T17:18:49Z</time>
      </trkpt>
      <trkpt lat="48.89002" lon="1.99904">
        <ele>173.432</ele>
        <time>2017-03-12T17:19:09Z</time>
      </trkpt>
      <trkpt lat="48.88986" lon="1.99853">
        <ele>171.284</ele>
        <time>2017-03-12T17:19:29Z</time>
      </trkpt>
      <trkpt lat="48.88996" lon="1.99808">
        <ele>169.222</ele>
        <time>2017-03-12T17:19:49Z</time>
      </trkpt>
      <trkpt lat="48.88981" lon="1.99786">
        <ele>169.062</ele>
        <time>2017-03-12T17:20:09Z</time>
      </trkpt>
      <trkpt lat="48.88979" lon="1.99763">
        <ele>168.208</ele>
        <time>2019-04-01T21:45:06Z</time>
      </trkpt>
      <trkpt lat="48.88916" lon="1.99752">
        <ele>175.108</ele>
        <time>2019-04-01T21:45:26Z</time>
      </trkpt>
      <trkpt lat="48.88885" lon="1.99662">
        <ele>175.135</ele>
        <time>2019-04-01T21:45:46Z</time>
      </trkpt>
      <trkpt lat="48.88896" lon="1.99638">
        <ele>173.936</ele>
        <time>2019-04-01T21:46:06Z</time>
      </trkpt>
      <trkpt lat="48.88881" lon="1.99607">
        <ele>174.22</ele>
        <time>2019-04-01T21:46:26Z</time>
      </trkpt>
      <trkpt lat="48.8888" lon="1.99534">
        <ele>174.132</ele>
        <time>2019-04-01T21:46:46Z</time>
      </trkpt>
      <trkpt lat="48.88871" lon="1.99494">
        <ele>174.913</ele>
        <time>2019-04-01T21:47:06Z</time>
      </trkpt>
      <trkpt lat="48.88878" lon="1.99414">
        <ele>171.11</ele>
        <time>2019-04-01T21:47:26Z</time>
      </trkpt>
      <trkpt lat="48.88834" lon="1.99354">
        <ele>174.745</ele>
        <time>2019-04-01T21:47:46Z</time>
      </trkpt>
      <trkpt lat="48.8882" lon="1.99287">
        <ele>173.547</ele>
        <time>2019-04-01T21:48:06Z</time>
      </trkpt>
      <trkpt lat="48.88755" lon="1.99278">
        <ele>176.661</ele>
        <time>2019-04-01T21:48:26Z</time>
      </trkpt>
      <trkpt lat="48.88713" lon="1.99216">
        <ele>178.121</ele>
        <time>2019-04-01T21:48:46Z</time>
      </trkpt>
      <trkpt lat="48.88654" lon="1.99184">
        <ele>181.413</ele>
        <time>2019-04-01T21:49:06Z</time>
      </trkpt>
      <trkpt lat="48.8861" lon="1.99099">
        <ele>181.508</ele>
        <time>2019-04-01T21:49:26Z</time>
      </trkpt>
      <trkpt lat="48.88566" lon="1.99041">
        <ele>177.499</ele>
        <time>2017-03-12T17:23:49Z</time>
      </trkpt>
      <trkpt lat="48.88602" lon="1.9894">
        <ele>167.98</ele>
        <time>2017-03-12T17:24:09Z</time>
      </trkpt>
      <trkpt lat="48.88574" lon="1.98885">
        <ele>171.564</ele>
        <time>2017-03-12T17:24:29Z</time>
      </trkpt>
      <trkpt lat="48.88376" lon="1.98922">
        <ele>177.196</ele>
        <time>2017-03-12T17:24:49Z</time>
      </trkpt>
      <trkpt lat="48.88476" lon="1.98632">
        <ele>172.317</ele>
        <time>2017-03-12T17:25:09Z</time>
      </trkpt>
      <trkpt lat="48.88476" lon="1.98632">
        <ele>172.354</ele>
        <time>2017-03-12T17:25:29Z</time>
      </trkpt>
      <trkpt lat="48.88302" lon="1.98469">
        <ele>174.299</ele>
        <time>2017-03-12T17:25:49Z</time>
      </trkpt>
      <trkpt lat="48.88294" lon="1.98484">
        <ele>174.331</ele>
        <time>2017-03-12T17:26:09Z</time>
      </trkpt>
      <trkpt lat="48.88215" lon="1.98469">
        <ele>175.145</ele>
        <time>2017-03-12T17:26:29Z</time>
      </trkpt>
      <trkpt lat="48.88165" lon="1.98512">
        <ele>175.447</ele>
        <time>2017-03-12T17:26:49Z</time>
      </trkpt>
      <trkpt lat="48.88102" lon="1.98533">
        <ele>174.511</ele>
        <time>2017-03-12T17:27:09Z</time>
      </trkpt>
      <trkpt lat="48.88079" lon="1.98567">
        <ele>175.208</ele>
        <time>2017-03-12T17:27:29Z</time>
      </trkpt>
      <trkpt lat="48.88059" lon="1.98621">
        <ele>175.997</ele>
        <time>2017-03-12T17:27:49Z</time>
      </trkpt>
      <trkpt lat="48.88023" lon="1.98576">
        <ele>176.458</ele>
        <time>2017-03-12T17:28:09Z</time>
      </trkpt>
      <trkpt lat="48.87946" lon="1.98535">
        <ele>178.722</ele>
        <time>2017-03-12T17:28:29Z</time>
      </trkpt>
      <trkpt lat="48.87862" lon="1.98518">
        <ele>177.054</ele>
        <time>2017-03-12T17:28:49Z</time>
      </trkpt>
      <trkpt lat="48.87826" lon="1.98488">
        <ele>176.685</ele>
        <time>2017-03-12T17:29:09Z</time>
      </trkpt>
      <trkpt lat="48.87802" lon="1.98409">
        <ele>177.582</ele>
        <time>2017-03-12T17:29:29Z</time>
      </trkpt>
      <trkpt lat="48.87788" lon="1.98295">
        <ele>172.857</ele>
        <time>2017-03-12T17:29:49Z</time>
      </trkpt>
      <trkpt lat="48.87788" lon="1.98226">
        <ele>173.259</ele>
        <time>2017-03-12T17:30:09Z</time>
      </trkpt>
      <trkpt lat="48.8774" lon="1.97947">
        <ele>177.128</ele>
        <time>2017-03-12T17:30:29Z</time>
      </trkpt>
      <trkpt lat="48.87738" lon="1.97947">
        <ele>177.189</ele>
        <time>2017-03-12T17:30:49Z</time>
      </trkpt>
      <trkpt lat="48.87738" lon="1.97947">
        <ele>177.117</ele>
        <time>2017-03-12T17:31:09Z</time>
      </trkpt>
      <trkpt lat="48.87733" lon="1.9788">
        <ele>176.708</ele>
        <time>2017-03-12T17:31:29Z</time>
      </trkpt>
      <trkpt lat="48.87747" lon="1.9777">
        <ele>179.055</ele>
        <time>2017-03-12T17:31:49Z</time>
      </trkpt>
      <trkpt lat="48.87819" lon="1.97481">
        <ele>184.586</ele>
        <time>2017-03-12T17:32:09Z</time>
      </trkpt>
      <trkpt lat="48.87832" lon="1.97313">
        <ele>185.85</ele>
        <time>2017-03-12T17:32:29Z</time>
      </trkpt>
      <trkpt lat="48.87832" lon="1.97313">
        <ele>185.872</ele>
        <time>2017-03-12T17:32:49Z</time>
      </trkpt>
      <trkpt lat="48.87857" lon="1.97283">
        <ele>186.133</ele>
        <time>2017-03-12T17:33:09Z</time>
      </trkpt>
      <trkpt lat="48.8794" lon="1.97289">
        <ele>185.71</ele>
        <time>2017-03-12T17:33:29Z</time>
      </trkpt>
      <trkpt lat="48.88013" lon="1.97311">
        <ele>180.285</ele>
        <time>2017-03-12T17:33:49Z</time>
      </trkpt>
      <trkpt lat="48.88082" lon="1.97285">
        <ele>174.197</ele>
        <time>2017-03-12T17:34:09Z</time>
      </trkpt>
      <trkpt lat="48.8818" lon="1.97115">
        <ele>176.171</ele>
        <time>2017-03-12T17:34:29Z</time>
      </trkpt>
      <trkpt lat="48.88245" lon="1.9704">
        <ele>177.441</ele>
        <time>2017-03-12T17:34:49Z</time>
      </trkpt>
      <trkpt lat="48.88342" lon="1.96954">
        <ele>175.915</ele>
        <time>2017-03-12T17:35:09Z</time>
      </trkpt>
      <trkpt lat="48.88497" lon="1.96888">
        <ele>180.008</ele>
        <time>2017-03-12T17:35:29Z</time>
      </trkpt>
      <trkpt lat="48.8862" lon="1.96787">
        <ele>177.42</ele>
        <time>2017-03-12T17:35:49Z</time>
      </trkpt>
      <trkpt lat="48.88765" lon="1.9657">
        <ele>177.231</ele>
        <time>2017-03-12T17:36:09Z</time>
      </trkpt>
      <trkpt lat="48.88789" lon="1.96617">
        <ele>176.075</ele>
        <time>2017-03-12T17:36:29Z</time>
      </trkpt>
      <trkpt lat="48.88952" lon="1.96866">
        <ele>174.187</ele>
        <time>2017-03-12T17:36:49Z</time>
      </trkpt>
      <trkpt lat="48.89028" lon="1.96967">
        <ele>173.078</ele>
        <time>2017-03-12T17:37:09Z</time>
      </trkpt>
      <trkpt lat="48.89136" lon="1.97152">
        <ele>172.555</ele>
        <time>2017-03-12T17:37:29Z</time>
      </trkpt>
      <trkpt lat="48.89259" lon="1.97188">
        <ele>175.32</ele>
        <time>2017-03-12T17:37:49Z</time>
      </trkpt>
      <trkpt lat="48.89526" lon="1.97386">
        <ele>176.912</ele>
        <time>2017-03-12T17:38:09Z</time>
      </trkpt>
      <trkpt lat="48.89605" lon="1.97431">
        <ele>175.084</ele>
        <time>2017-03-12T17:38:29Z</time>
      </trkpt>
      <trkpt lat="48.89698" lon="1.97536">
        <ele>174.907</ele>
        <time>2017-03-12T17:38:49Z</time>
      </trkpt>
      <trkpt lat="48.89895" lon="1.96229">
        <ele>177.017</ele>
        <time>2017-03-12T17:39:09Z</time>
      </trkpt>
      <trkpt lat="48.9009" lon="1.96444">
        <ele>176.008</ele>
        <time>2017-03-12T17:39:29Z</time>
      </trkpt>
      <trkpt lat="48.90434" lon="1.96875">
        <ele>169.231</ele>
        <time>2017-03-12T17:39:49Z</time>
      </trkpt>
      <trkpt lat="48.90482" lon="1.96675">
        <ele>169.712</ele>
        <time>2019-04-01T22:06:06Z</time>
      </trkpt>
      <trkpt lat="48.905" lon="1.96457">
        <ele>172.216</ele>
        <time>2019-04-01T22:06:26Z</time>
      </trkpt>
      <trkpt lat="48.90486" lon="1.96285">
        <ele>170.868</ele>
        <time>2019-04-01T22:06:46Z</time>
      </trkpt>
      <trkpt lat="48.90502" lon="1.96235">
        <ele>169.939</ele>
        <time>2019-04-01T22:07:06Z</time>
      </trkpt>
      <trkpt lat="48.90529" lon="1.96203">
        <ele>168.756</ele>
        <time>2019-04-01T22:07:26Z</time>
      </trkpt>
      <trkpt lat="48.90588" lon="1.96205">
        <ele>166.971</ele>
        <time>2019-04-01T22:07:46Z</time>
      </trkpt>
      <trkpt lat="48.9069" lon="1.96168">
        <ele>158.173</ele>
        <time>2019-04-01T22:08:06Z</time>
      </trkpt>
      <trkpt lat="48.90807" lon="1.96209">
        <ele>144.318</ele>
        <time>2019-04-01T22:08:26Z</time>
      </trkpt>
      <trkpt lat="48.90851" lon="1.9627">
        <ele>138.498</ele>
        <time>2019-04-01T22:08:46Z</time>
      </trkpt>
      <trkpt lat="48.90969" lon="1.96315">
        <ele>132.117</ele>
        <time>2019-04-01T22:09:06Z</time>
      </trkpt>
      <trkpt lat="48.91008" lon="1.96347">
        <ele>131.708</ele>
        <time>2019-04-01T22:09:26Z</time>
      </trkpt>
      <trkpt lat="48.91044" lon="1.96338">
        <ele>125.894</ele>
        <time>2019-04-01T22:09:46Z</time>
      </trkpt>
      <trkpt lat="48.91062" lon="1.963">
        <ele>125.795</ele>
        <time>2019-04-01T22:10:06Z</time>
      </trkpt>
      <trkpt lat="48.91133" lon="1.96282">
        <ele>121.169</ele>
        <time>2019-04-01T22:10:26Z</time>
      </trkpt>
      <trkpt lat="48.91132" lon="1.96326">
        <ele>119.731</ele>
        <time>2019-04-01T22:10:46Z</time>
      </trkpt>
      <trkpt lat="48.91093" lon="1.96403">
        <ele>123.222</ele>
        <time>2019-04-01T22:11:06Z</time>
      </trkpt>
      <trkpt lat="48.91063" lon="1.96487">
        <ele>126.389</ele>
        <time>2019-04-01T22:11:26Z</time>
      </trkpt>
      <trkpt lat="48.9104" lon="1.96601">
        <ele>129.444</ele>
        <time>2019-04-01T22:11:46Z</time>
      </trkpt>
      <trkpt lat="48.91034" lon="1.96775">
        <ele>134.646</ele>
        <time>2019-04-01T22:12:06Z</time>
      </trkpt>
      <trkpt lat="48.91046" lon="1.96907">
        <ele>131.535</ele>
        <time>2019-04-01T22:12:26Z</time>
      </trkpt>
      <trkpt lat="48.90987" lon="1.9698">
        <ele>137.186</ele>
        <time>2019-04-01T22:12:46Z</time>
      </trkpt>
      <trkpt lat="48.9099" lon="1.97146">
        <ele>140.414</ele>
        <time>2019-04-01T22:13:06Z</time>
      </trkpt>
      <trkpt lat="48.91035" lon="1.97303">
        <ele>141.008</ele>
        <time>2019-04-01T22:13:26Z</time>
      </trkpt>
      <trkpt lat="48.91038" lon="1.97391">
        <ele>136.996</ele>
        <time>2019-04-01T22:13:46Z</time>
      </trkpt>
      <trkpt lat="48.91078" lon="1.97382">
        <ele>137.887</ele>
        <time>2019-04-01T22:14:06Z</time>
      </trkpt>
      <trkpt lat="48.91109" lon="1.97399">
        <ele>136.311</ele>
        <time>2019-04-01T22:14:26Z</time>
      </trkpt>
      <trkpt lat="48.9114" lon="1.97406">
        <ele>132.723</ele>
        <time>2019-04-01T22:14:46Z</time>
      </trkpt>
      <trkpt lat="48.91187" lon="1.97456">
        <ele>125.244</ele>
        <time>2019-04-01T22:15:06Z</time>
      </trkpt>
      <trkpt lat="48.912" lon="1.97511">
        <ele>121.151</ele>
        <time>2019-04-01T22:15:26Z</time>
      </trkpt>
      <trkpt lat="48.91368" lon="1.97686">
        <ele>119.086</ele>
        <time>2019-04-01T22:15:46Z</time>
      </trkpt>
      <trkpt lat="48.91469" lon="1.9774">
        <ele>132.888</ele>
        <time>2019-04-01T22:16:06Z</time>
      </trkpt>
      <trkpt lat="48.9151" lon="1.97836">
        <ele>135.013</ele>
        <time>2019-04-01T22:16:26Z</time>
      </trkpt>
      <trkpt lat="48.91621" lon="1.97989">
        <ele>138.243</ele>
        <time>2019-04-01T22:16:46Z</time>
      </trkpt>
      <trkpt lat="48.91766" lon="1.97957">
        <ele>125.607</ele>
        <time>2019-04-01T22:17:06Z</time>
      </trkpt>
      <trkpt lat="48.91831" lon="1.98004">
        <ele>124.508</ele>
        <time>2019-04-01T22:17:26Z</time>
      </trkpt>
      <trkpt lat="48.91853" lon="1.97983">
        <ele>120.274</ele>
        <time>2019-04-01T22:17:46Z</time>
      </trkpt>
      <trkpt lat="48.91774" lon="1.97821">
        <ele>106.375</ele>
        <time>2019-04-01T22:18:06Z</time>
      </trkpt>
      <trkpt lat="48.91805" lon="1.97742">
        <ele>102.079</ele>
        <time>2019-04-01T22:18:26Z</time>
      </trkpt>
      <trkpt lat="48.91885" lon="1.9775">
        <ele>102.331</ele>
        <time>2019-04-01T22:18:46Z</time>
      </trkpt>
      <trkpt lat="48.91936" lon="1.97567">
        <ele>104.932</ele>
        <time>2019-04-01T22:19:06Z</time>
      </trkpt>
      <trkpt lat="48.91969" lon="1.97602">
        <ele>103.059</ele>
        <time>2019-04-01T22:19:26Z</time>
      </trkpt>
      <trkpt lat="48.92095" lon="1.9741">
        <ele>102.884</ele>
        <time>2019-04-01T22:19:46Z</time>
      </trkpt>
      <trkpt lat="48.92195" lon="1.97206">
        <ele>104.636</ele>
        <time>2019-04-01T22:20:06Z</time>
      </trkpt>
      <trkpt lat="48.92219" lon="1.97126">
        <ele>105.667</ele>
        <time>2019-04-01T22:20:26Z</time>
      </trkpt>
      <trkpt lat="48.92349" lon="1.97021">
        <ele>101.881</ele>
        <time>2019-04-01T22:20:46Z</time>
      </trkpt>
      <trkpt lat="48.92394" lon="1.96939">
        <ele>99.819</ele>
        <time>2019-04-01T22:21:06Z</time>
      </trkpt>
      <trkpt lat="48.92642" lon="1.9664">
        <ele>100.708</ele>
        <time>2019-04-01T22:21:26Z</time>
      </trkpt>
      <trkpt lat="48.92696" lon="1.96549">
        <ele>102.299</ele>
        <time>2019-04-01T22:21:46Z</time>
      </trkpt>
      <trkpt lat="48.92755" lon="1.96433">
        <ele>99.63</ele>
        <time>2019-04-01T22:22:06Z</time>
      </trkpt>
      <trkpt lat="48.9279" lon="1.96334">
        <ele>101.144</ele>
        <time>2017-03-12T17:53:09Z</time>
      </trkpt>
      <trkpt lat="48.92941" lon="1.96377">
        <ele>91.156</ele>
        <time>2017-03-12T17:53:29Z</time>
      </trkpt>
      <trkpt lat="48.93118" lon="1.9633">
        <ele>82.027</ele>
        <time>2017-03-12T17:53:49Z</time>
      </trkpt>
      <trkpt lat="48.93129" lon="1.96328">
        <ele>82.044</ele>
        <time>2017-03-12T17:54:09Z</time>
      </trkpt>
      <trkpt lat="48.93308" lon="1.96317">
        <ele>80.789</ele>
        <time>2017-03-12T17:54:29Z</time>
      </trkpt>
      <trkpt lat="48.93414" lon="1.96261">
        <ele>89.261</ele>
        <time>2019-04-01T22:24:06Z</time>
      </trkpt>
      <trkpt lat="48.93721" lon="1.96306">
        <ele>113.988</ele>
        <time>2019-04-01T22:24:26Z</time>
      </trkpt>
      <trkpt lat="48.938" lon="1.96349">
        <ele>120.624</ele>
        <time>2019-04-01T22:24:46Z</time>
      </trkpt>
      <trkpt lat="48.93853" lon="1.96394">
        <ele>122.026</ele>
        <time>2019-04-01T22:25:06Z</time>
      </trkpt>
      <trkpt lat="48.93875" lon="1.96315">
        <ele>126.408</ele>
        <time>2019-04-01T22:25:26Z</time>
      </trkpt>
      <trkpt lat="48.93917" lon="1.9625">
        <ele>128.041</ele>
        <time>2019-04-01T22:25:46Z</time>
      </trkpt>
      <trkpt lat="48.94031" lon="1.96306">
        <ele>133.922</ele>
        <time>2019-04-01T22:26:06Z</time>
      </trkpt>
      <trkpt lat="48.94142" lon="1.96317">
        <ele>129.736</ele>
        <time>2019-04-01T22:26:26Z</time>
      </trkpt>
      <trkpt lat="48.94159" lon="1.96384">
        <ele>130.588</ele>
        <time>2017-03-12T17:56:09Z</time>
      </trkpt>
      <trkpt lat="48.94083" lon="1.96433">
        <ele>132.699</ele>
        <time>2017-03-12T17:56:29Z</time>
      </trkpt>
      <trkpt lat="48.94032" lon="1.96414">
        <ele>131.356</ele>
        <time>2017-03-12T17:56:49Z</time>
      </trkpt>
      <trkpt lat="48.93987" lon="1.96493">
        <ele>130.231</ele>
        <time>2017-03-12T17:57:09Z</time>
      </trkpt>
      <trkpt lat="48.93958" lon="1.9657">
        <ele>128.493</ele>
        <time>2017-03-12T17:57:29Z</time>
      </trkpt>
      <trkpt lat="48.93886" lon="1.9665">
        <ele>136.239</ele>
        <time>2017-03-12T17:57:49Z</time>
      </trkpt>
      <trkpt lat="48.93883" lon="1.96695">
        <ele>136.401</ele>
        <time>2017-03-12T17:58:09Z</time>
      </trkpt>
      <trkpt lat="48.93946" lon="1.9675">
        <ele>143.221</ele>
        <time>2017-03-12T17:58:29Z</time>
      </trkpt>
      <trkpt lat="48.93966" lon="1.968">
        <ele>144.308</ele>
        <time>2017-03-12T17:58:49Z</time>
      </trkpt>
      <trkpt lat="48.94038" lon="1.96853">
        <ele>147.416</ele>
        <time>2017-03-12T17:59:09Z</time>
      </trkpt>
      <trkpt lat="48.94058" lon="1.96911">
        <ele>149.037</ele>
        <time>2017-03-12T17:59:29Z</time>
      </trkpt>
      <trkpt lat="48.94113" lon="1.96946">
        <ele>150.091</ele>
        <time>2017-03-12T17:59:49Z</time>
      </trkpt>
      <trkpt lat="48.94161" lon="1.96952">
        <ele>154.653</ele>
        <time>2017-03-12T18:00:09Z</time>
      </trkpt>
      <trkpt lat="48.94201" lon="1.96931">
        <ele>161.894</ele>
        <time>2017-03-12T18:00:29Z</time>
      </trkpt>
      <trkpt lat="48.94258" lon="1.9686">
        <ele>168.531</ele>
        <time>2017-03-12T18:00:49Z</time>
      </trkpt>
      <trkpt lat="48.94318" lon="1.96909">
        <ele>174.496</ele>
        <time>2017-03-12T18:01:09Z</time>
      </trkpt>
      <trkpt lat="48.94371" lon="1.96961">
        <ele>172.248</ele>
        <time>2017-03-12T18:01:29Z</time>
      </trkpt>
      <trkpt lat="48.94409" lon="1.96974">
        <ele>171.372</ele>
        <time>2017-03-12T18:01:49Z</time>
      </trkpt>
      <trkpt lat="48.94402" lon="1.97107">
        <ele>175.013</ele>
        <time>2017-03-12T18:02:09Z</time>
      </trkpt>
      <trkpt lat="48.94468" lon="1.97169">
        <ele>175.214</ele>
        <time>2017-03-12T18:02:29Z</time>
      </trkpt>
      <trkpt lat="48.94473" lon="1.97227">
        <ele>176.808</ele>
        <time>2017-03-12T18:02:49Z</time>
      </trkpt>
      <trkpt lat="48.94499" lon="1.97248">
        <ele>174.36</ele>
        <time>2017-03-12T18:03:09Z</time>
      </trkpt>
      <trkpt lat="48.94558" lon="1.9725">
        <ele>175.231</ele>
        <time>2017-03-12T18:03:29Z</time>
      </trkpt>
      <trkpt lat="48.94685" lon="1.97308">
        <ele>172.685</ele>
        <time>2017-03-12T18:03:49Z</time>
      </trkpt>
      <trkpt lat="48.94861" lon="1.97439">
        <ele>158.487</ele>
        <time>2017-03-12T18:04:09Z</time>
      </trkpt>
      <trkpt lat="48.94961" lon="1.97641">
        <ele>140.018</ele>
        <time>2017-03-12T18:04:29Z</time>
      </trkpt>
      <trkpt lat="48.9503" lon="1.97643">
        <ele>131.745</ele>
        <time>2017-03-12T18:04:49Z</time>
      </trkpt>
      <trkpt lat="48.95063" lon="1.97735">
        <ele>125.44</ele>
        <time>2017-03-12T18:05:09Z</time>
      </trkpt>
      <trkpt lat="48.95088" lon="1.97727">
        <ele>123.542</ele>
        <time>2017-03-12T18:05:29Z</time>
      </trkpt>
      <trkpt lat="48.95181" lon="1.97647">
        <ele>126.969</ele>
        <time>2017-03-12T18:05:49Z</time>
      </trkpt>
      <trkpt lat="48.95241" lon="1.97564">
        <ele>121.904</ele>
        <time>2017-03-12T18:06:09Z</time>
      </trkpt>
      <trkpt lat="48.95243" lon="1.97302">
        <ele>115.824</ele>
        <time>2017-03-12T18:06:29Z</time>
      </trkpt>
      <trkpt lat="48.95289" lon="1.97233">
        <ele>113.008</ele>
        <time>2017-03-12T18:06:49Z</time>
      </trkpt>
      <trkpt lat="48.95378" lon="1.97208">
        <ele>104.439</ele>
        <time>2017-03-12T18:07:09Z</time>
      </trkpt>
      <trkpt lat="48.95412" lon="1.97231">
        <ele>102.31</ele>
        <time>2017-03-12T18:07:29Z</time>
      </trkpt>
      <trkpt lat="48.95413" lon="1.97326">
        <ele>107.324</ele>
        <time>2017-03-12T18:07:49Z</time>
      </trkpt>
      <trkpt lat="48.95478" lon="1.97418">
        <ele>104.776</ele>
        <time>2017-03-12T18:08:09Z</time>
      </trkpt>
      <trkpt lat="48.95609" lon="1.97482">
        <ele>94.437</ele>
        <time>2017-03-12T18:08:29Z</time>
      </trkpt>
      <trkpt lat="48.95663" lon="1.97564">
        <ele>86.394</ele>
        <time>2017-03-12T18:08:49Z</time>
      </trkpt>
      <trkpt lat="48.95912" lon="1.97989">
        <ele>70.319</ele>
        <time>2017-03-12T18:09:09Z</time>
      </trkpt>
      <trkpt lat="48.96049" lon="1.97986">
        <ele>70.521</ele>
        <time>2017-03-12T18:09:29Z</time>
      </trkpt>
      <trkpt lat="48.96143" lon="1.98169">
        <ele>67.056</ele>
        <time>2017-03-12T18:09:49Z</time>
      </trkpt>
      <trkpt lat="48.96214" lon="1.98401">
        <ele>60.659</ele>
        <time>2017-03-12T18:10:09Z</time>
      </trkpt>
      <trkpt lat="48.96211" lon="1.98433">
        <ele>59.414</ele>
        <time>2017-03-12T18:10:29Z</time>
      </trkpt>
      <trkpt lat="48.96295" lon="1.98602">
        <ele>55.308</ele>
        <time>2017-03-12T18:10:49Z</time>
      </trkpt>
      <trkpt lat="48.96305" lon="1.98639">
        <ele>53.058</ele>
        <time>2017-03-12T18:11:09Z</time>
      </trkpt>
      <trkpt lat="48.96346" lon="1.98703">
        <ele>55.119</ele>
        <time>2017-03-12T18:11:29Z</time>
      </trkpt>
      <trkpt lat="48.96422" lon="1.98791">
        <ele>49.553</ele>
        <time>2017-03-12T18:11:49Z</time>
      </trkpt>
      <trkpt lat="48.9645" lon="1.98834">
        <ele>48.245</ele>
        <time>2017-03-12T18:12:09Z</time>
      </trkpt>
      <trkpt lat="48.96493" lon="1.98849">
        <ele>49.846</ele>
        <time>2017-03-12T18:12:29Z</time>
      </trkpt>
      <trkpt lat="48.96577" lon="1.98783">
        <ele>45.323</ele>
        <time>2017-03-12T18:12:49Z</time>
      </trkpt>
      <trkpt lat="48.96666" lon="1.98675">
        <ele>45.168</ele>
        <time>2017-03-12T18:13:09Z</time>
      </trkpt>
      <trkpt lat="48.96725" lon="1.98538">
        <ele>41.57</ele>
        <time>2017-03-12T18:13:29Z</time>
      </trkpt>
      <trkpt lat="48.96756" lon="1.98416">
        <ele>40.266</ele>
        <time>2017-03-12T18:13:49Z</time>
      </trkpt>
      <trkpt lat="48.96794" lon="1.98383">
        <ele>44.029</ele>
        <time>2017-03-12T18:14:09Z</time>
      </trkpt>
      <trkpt lat="48.96821" lon="1.98349">
        <ele>47.021</ele>
        <time>2017-03-12T18:14:29Z</time>
      </trkpt>
      <trkpt lat="48.96846" lon="1.98278">
        <ele>49.008</ele>
        <time>2017-03-12T18:14:49Z</time>
      </trkpt>
      <trkpt lat="48.96887" lon="1.98218">
        <ele>49.249</ele>
        <time>2017-03-12T18:15:09Z</time>
      </trkpt>
      <trkpt lat="48.96942" lon="1.98162">
        <ele>51.21</ele>
        <time>2017-03-12T18:15:29Z</time>
      </trkpt>
      <trkpt lat="48.96996" lon="1.98328">
        <ele>45.474</ele>
        <time>2017-03-12T18:15:49Z</time>
      </trkpt>
      <trkpt lat="48.97121" lon="1.98238">
        <ele>48.966</ele>
        <time>2017-03-12T18:16:09Z</time>
      </trkpt>
      <trkpt lat="48.97153" lon="1.98328">
        <ele>45.717</ele>
        <time>2017-03-12T18:16:29Z</time>
      </trkpt>
      <trkpt lat="48.97188" lon="1.98304">
        <ele>47.014</ele>
        <time>2017-03-12T18:16:49Z</time>
      </trkpt>
      <trkpt lat="48.97196" lon="1.98377">
        <ele>42.929</ele>
        <time>2017-03-12T18:17:09Z</time>
      </trkpt>
      <trkpt lat="48.97215" lon="1.98403">
        <ele>40.981</ele>
      </trkpt>
      <trkpt lat="48.97215" lon="1.98403">
        <ele>40.932</ele>
      </trkpt>
      <trkpt lat="48.97253" lon="1.9839">
        <ele>40.892</ele>
      </trkpt>
      <trkpt lat="48.97286" lon="1.98358">
        <ele>40.3</ele>
      </trkpt>
      <trkpt lat="48.97392" lon="1.98343">
        <ele>37.7</ele>
      </trkpt>
      <trkpt lat="48.97455" lon="1.98311">
        <ele>36.1</ele>
      </trkpt>
      <trkpt lat="48.97501" lon="1.98284">
        <ele>32.2</ele>
      </trkpt>
      <trkpt lat="48.97576" lon="1.98224">
        <ele>32.6</ele>
      </trkpt>
      <trkpt lat="48.97609" lon="1.982">
        <ele>30.3</ele>
      </trkpt>
      <trkpt lat="48.97623" lon="1.98166">
        <ele>31.7</ele>
      </trkpt>
      <trkpt lat="48.97645" lon="1.98171">
        <ele>30</ele>
      </trkpt>
      <trkpt lat="48.97666" lon="1.98181">
        <ele>29.8</ele>
      </trkpt>
      <trkpt lat="48.97735" lon="1.98152">
        <ele>26.4</ele>
      </trkpt>
      <trkpt lat="48.97789" lon="1.98139">
        <ele>24.8</ele>
      </trkpt>
      <trkpt lat="48.97829" lon="1.98131">
        <ele>24.7</ele>
      </trkpt>
      <trkpt lat="48.97865" lon="1.98055">
        <ele>24.4</ele>
      </trkpt>
      <trkpt lat="48.97888" lon="1.98002">
        <ele>24.7</ele>
      </trkpt>
      <trkpt lat="48.97909" lon="1.97962">
        <ele>25</ele>
      </trkpt>
      <trkpt lat="48.97944" lon="1.98018">
        <ele>24.9</ele>
      </trkpt>
      <trkpt lat="48.9799" lon="1.98076">
        <ele>24.3</ele>
      </trkpt>
      <trkpt lat="48.9798" lon="1.98123">
        <ele>23.1</ele>
      </trkpt>
      <trkpt lat="48.98022" lon="1.98181">
        <ele>21.5</ele>
      </trkpt>
      <trkpt lat="48.98087" lon="1.98292">
        <ele>23</ele>
      </trkpt>
    </trkseg>
  </trk>
</gpx>